sensor_id;sensor_type;location;lat;lon;timestamp;P1;durP1;ratioP1;P2;durP2;ratioP2
1691;SDS011;843;52.054;8.552;2022-11-22T00:01:21;23.90;;;15.43;;
1691;SDS011;843;52.054;8.552;2022-11-22T00:03:48;30.00;;;18.00;;
1691;SDS011;843;52.054;8.552;2022-11-22T00:06:15;30.23;;;17.70;;
1691;SDS011;843;52.054;8.552;2022-11-22T00:08:41;26.83;;;16.47;;
1691;SDS011;843;52.054;8.552;2022-11-22T00:11:08;22.90;;;16.10;;
1691;SDS011;843;52.054;8.552;2022-11-22T00:13:37;20.43;;;15.17;;
1691;SDS011;843;52.054;8.552;2022-11-22T00:16:04;27.33;;;15.60;;
1691;SDS011;843;52.054;8.552;2022-11-22T00:18:32;24.53;;;16.60;;
1691;SDS011;843;52.054;8.552;2022-11-22T00:21:02;24.93;;;15.90;;
1691;SDS011;843;52.054;8.552;2022-11-22T00:23:30;24.43;;;16.03;;
1691;SDS011;843;52.054;8.552;2022-11-22T00:25:57;22.63;;;16.57;;
1691;SDS011;843;52.054;8.552;2022-11-22T00:28:24;23.20;;;16.03;;
1691;SDS011;843;52.054;8.552;2022-11-22T00:30:50;20.57;;;14.80;;
1691;SDS011;843;52.054;8.552;2022-11-22T00:33:17;21.60;;;13.80;;
1691;SDS011;843;52.054;8.552;2022-11-22T00:35:45;20.90;;;14.17;;
1691;SDS011;843;52.054;8.552;2022-11-22T00:38:12;19.43;;;15.37;;
1691;SDS011;843;52.054;8.552;2022-11-22T00:40:38;21.43;;;14.60;;
1691;SDS011;843;52.054;8.552;2022-11-22T00:43:05;25.10;;;15.50;;
1691;SDS011;843;52.054;8.552;2022-11-22T00:45:32;20.70;;;15.50;;
1691;SDS011;843;52.054;8.552;2022-11-22T00:47:59;26.07;;;16.10;;
1691;SDS011;843;52.054;8.552;2022-11-22T00:50:25;19.77;;;14.97;;
1691;SDS011;843;52.054;8.552;2022-11-22T00:52:53;28.97;;;16.57;;
1691;SDS011;843;52.054;8.552;2022-11-22T00:55:20;22.10;;;16.00;;
1691;SDS011;843;52.054;8.552;2022-11-22T00:57:47;24.43;;;15.00;;
1691;SDS011;843;52.054;8.552;2022-11-22T01:00:14;20.90;;;15.33;;
1691;SDS011;843;52.054;8.552;2022-11-22T01:02:41;24.20;;;15.87;;
1691;SDS011;843;52.054;8.552;2022-11-22T01:05:08;22.97;;;15.40;;
1691;SDS011;843;52.054;8.552;2022-11-22T01:07:34;21.40;;;16.70;;
1691;SDS011;843;52.054;8.552;2022-11-22T01:10:03;17.87;;;14.27;;
1691;SDS011;843;52.054;8.552;2022-11-22T01:12:30;24.97;;;16.47;;
1691;SDS011;843;52.054;8.552;2022-11-22T01:14:56;21.60;;;15.13;;
1691;SDS011;843;52.054;8.552;2022-11-22T01:17:23;29.17;;;14.87;;
1691;SDS011;843;52.054;8.552;2022-11-22T01:19:49;26.70;;;16.20;;
1691;SDS011;843;52.054;8.552;2022-11-22T01:22:16;27.30;;;16.03;;
1691;SDS011;843;52.054;8.552;2022-11-22T01:24:43;20.40;;;15.17;;
1691;SDS011;843;52.054;8.552;2022-11-22T01:27:11;23.00;;;15.80;;
1691;SDS011;843;52.054;8.552;2022-11-22T01:29:37;20.20;;;14.93;;
1691;SDS011;843;52.054;8.552;2022-11-22T01:32:04;23.67;;;16.37;;
1691;SDS011;843;52.054;8.552;2022-11-22T01:34:31;24.60;;;16.30;;
1691;SDS011;843;52.054;8.552;2022-11-22T01:36:57;21.30;;;15.63;;
1691;SDS011;843;52.054;8.552;2022-11-22T01:39:24;17.73;;;14.03;;
1691;SDS011;843;52.054;8.552;2022-11-22T01:41:50;23.47;;;15.57;;
1691;SDS011;843;52.054;8.552;2022-11-22T01:44:22;25.13;;;16.30;;
1691;SDS011;843;52.054;8.552;2022-11-22T01:46:50;20.43;;;14.13;;
1691;SDS011;843;52.054;8.552;2022-11-22T01:49:22;19.13;;;14.77;;
1691;SDS011;843;52.054;8.552;2022-11-22T01:51:52;21.57;;;14.20;;
1691;SDS011;843;52.054;8.552;2022-11-22T01:54:21;22.40;;;15.10;;
1691;SDS011;843;52.054;8.552;2022-11-22T01:56:50;24.33;;;14.50;;
1691;SDS011;843;52.054;8.552;2022-11-22T01:59:20;21.20;;;14.83;;
1691;SDS011;843;52.054;8.552;2022-11-22T02:01:49;21.90;;;15.80;;
1691;SDS011;843;52.054;8.552;2022-11-22T02:04:17;29.63;;;15.73;;
1691;SDS011;843;52.054;8.552;2022-11-22T02:06:48;20.53;;;15.20;;
1691;SDS011;843;52.054;8.552;2022-11-22T02:09:16;20.93;;;14.50;;
1691;SDS011;843;52.054;8.552;2022-11-22T02:11:45;22.20;;;14.43;;
1691;SDS011;843;52.054;8.552;2022-11-22T02:14:14;18.17;;;13.90;;
1691;SDS011;843;52.054;8.552;2022-11-22T02:16:43;22.13;;;13.80;;
1691;SDS011;843;52.054;8.552;2022-11-22T02:19:12;18.10;;;12.97;;
1691;SDS011;843;52.054;8.552;2022-11-22T02:21:41;21.40;;;13.80;;
1691;SDS011;843;52.054;8.552;2022-11-22T02:24:09;24.50;;;14.37;;
1691;SDS011;843;52.054;8.552;2022-11-22T02:26:41;17.60;;;14.00;;
1691;SDS011;843;52.054;8.552;2022-11-22T02:29:07;18.70;;;13.83;;
1691;SDS011;843;52.054;8.552;2022-11-22T02:31:36;19.57;;;13.17;;
1691;SDS011;843;52.054;8.552;2022-11-22T02:34:04;17.00;;;12.13;;
1691;SDS011;843;52.054;8.552;2022-11-22T02:36:32;14.00;;;11.47;;
1691;SDS011;843;52.054;8.552;2022-11-22T02:39:01;16.47;;;12.77;;
1691;SDS011;843;52.054;8.552;2022-11-22T02:41:28;16.80;;;12.50;;
1691;SDS011;843;52.054;8.552;2022-11-22T02:43:56;17.93;;;12.30;;
1691;SDS011;843;52.054;8.552;2022-11-22T02:46:23;16.97;;;12.57;;
1691;SDS011;843;52.054;8.552;2022-11-22T02:48:49;18.13;;;12.33;;
1691;SDS011;843;52.054;8.552;2022-11-22T02:51:16;17.20;;;12.13;;
1691;SDS011;843;52.054;8.552;2022-11-22T02:53:44;16.60;;;12.10;;
1691;SDS011;843;52.054;8.552;2022-11-22T02:56:11;16.33;;;11.73;;
1691;SDS011;843;52.054;8.552;2022-11-22T02:58:37;16.80;;;11.37;;
1691;SDS011;843;52.054;8.552;2022-11-22T03:01:05;15.23;;;10.40;;
1691;SDS011;843;52.054;8.552;2022-11-22T03:03:32;17.90;;;12.13;;
1691;SDS011;843;52.054;8.552;2022-11-22T03:05:58;13.93;;;10.30;;
1691;SDS011;843;52.054;8.552;2022-11-22T03:08:26;17.50;;;10.60;;
1691;SDS011;843;52.054;8.552;2022-11-22T03:10:53;15.70;;;11.23;;
1691;SDS011;843;52.054;8.552;2022-11-22T03:13:22;11.50;;;8.67;;
1691;SDS011;843;52.054;8.552;2022-11-22T03:15:48;14.53;;;10.10;;
1691;SDS011;843;52.054;8.552;2022-11-22T03:18:16;12.70;;;9.33;;
1691;SDS011;843;52.054;8.552;2022-11-22T03:20:43;14.40;;;11.20;;
1691;SDS011;843;52.054;8.552;2022-11-22T03:23:09;12.77;;;10.13;;
1691;SDS011;843;52.054;8.552;2022-11-22T03:25:36;15.23;;;9.40;;
1691;SDS011;843;52.054;8.552;2022-11-22T03:28:03;12.20;;;9.50;;
1691;SDS011;843;52.054;8.552;2022-11-22T03:30:30;11.40;;;8.47;;
1691;SDS011;843;52.054;8.552;2022-11-22T03:32:57;11.00;;;8.57;;
1691;SDS011;843;52.054;8.552;2022-11-22T03:35:25;12.50;;;9.30;;
1691;SDS011;843;52.054;8.552;2022-11-22T03:37:51;13.00;;;9.50;;
1691;SDS011;843;52.054;8.552;2022-11-22T03:40:18;13.33;;;7.97;;
1691;SDS011;843;52.054;8.552;2022-11-22T03:42:45;15.30;;;9.47;;
1691;SDS011;843;52.054;8.552;2022-11-22T03:45:11;8.43;;;7.53;;
1691;SDS011;843;52.054;8.552;2022-11-22T03:47:38;11.87;;;7.47;;
1691;SDS011;843;52.054;8.552;2022-11-22T03:50:05;10.40;;;6.90;;
1691;SDS011;843;52.054;8.552;2022-11-22T03:52:33;11.03;;;7.60;;
1691;SDS011;843;52.054;8.552;2022-11-22T03:55:00;10.43;;;6.47;;
1691;SDS011;843;52.054;8.552;2022-11-22T03:57:26;9.90;;;6.07;;
1691;SDS011;843;52.054;8.552;2022-11-22T03:59:53;9.57;;;6.20;;
1691;SDS011;843;52.054;8.552;2022-11-22T04:02:19;9.43;;;5.20;;
1691;SDS011;843;52.054;8.552;2022-11-22T04:04:46;7.33;;;5.63;;
1691;SDS011;843;52.054;8.552;2022-11-22T04:07:13;7.70;;;5.50;;
1691;SDS011;843;52.054;8.552;2022-11-22T04:09:41;6.93;;;5.13;;
1691;SDS011;843;52.054;8.552;2022-11-22T04:12:07;9.33;;;6.03;;
1691;SDS011;843;52.054;8.552;2022-11-22T04:14:34;7.43;;;5.50;;
1691;SDS011;843;52.054;8.552;2022-11-22T04:17:18;13.40;;;6.47;;
1691;SDS011;843;52.054;8.552;2022-11-22T04:19:59;7.97;;;5.10;;
1691;SDS011;843;52.054;8.552;2022-11-22T04:22:39;6.67;;;5.60;;
1691;SDS011;843;52.054;8.552;2022-11-22T04:25:07;9.50;;;5.67;;
1691;SDS011;843;52.054;8.552;2022-11-22T04:27:40;8.03;;;5.67;;
1691;SDS011;843;52.054;8.552;2022-11-22T04:30:06;9.40;;;5.67;;
1691;SDS011;843;52.054;8.552;2022-11-22T04:32:33;5.77;;;4.87;;
1691;SDS011;843;52.054;8.552;2022-11-22T04:35:17;5.97;;;4.90;;
1691;SDS011;843;52.054;8.552;2022-11-22T04:37:48;8.00;;;6.30;;
1691;SDS011;843;52.054;8.552;2022-11-22T04:40:17;7.10;;;5.60;;
1691;SDS011;843;52.054;8.552;2022-11-22T04:42:44;7.90;;;5.70;;
1691;SDS011;843;52.054;8.552;2022-11-22T04:45:28;9.17;;;6.00;;
1691;SDS011;843;52.054;8.552;2022-11-22T04:47:54;5.53;;;4.87;;
1691;SDS011;843;52.054;8.552;2022-11-22T04:50:24;9.47;;;5.77;;
1691;SDS011;843;52.054;8.552;2022-11-22T04:53:12;6.57;;;4.80;;
1691;SDS011;843;52.054;8.552;2022-11-22T04:55:40;8.60;;;5.17;;
1691;SDS011;843;52.054;8.552;2022-11-22T04:58:07;5.87;;;4.63;;
1691;SDS011;843;52.054;8.552;2022-11-22T05:00:34;10.60;;;6.73;;
1691;SDS011;843;52.054;8.552;2022-11-22T05:03:01;6.20;;;4.30;;
1691;SDS011;843;52.054;8.552;2022-11-22T05:05:28;5.40;;;4.90;;
1691;SDS011;843;52.054;8.552;2022-11-22T05:07:56;7.07;;;5.03;;
1691;SDS011;843;52.054;8.552;2022-11-22T05:10:23;5.47;;;4.93;;
1691;SDS011;843;52.054;8.552;2022-11-22T05:12:51;5.10;;;4.53;;
1691;SDS011;843;52.054;8.552;2022-11-22T05:15:18;7.27;;;4.70;;
1691;SDS011;843;52.054;8.552;2022-11-22T05:17:45;8.97;;;4.77;;
1691;SDS011;843;52.054;8.552;2022-11-22T05:20:12;6.63;;;5.30;;
1691;SDS011;843;52.054;8.552;2022-11-22T05:22:38;5.30;;;4.43;;
1691;SDS011;843;52.054;8.552;2022-11-22T05:25:23;6.20;;;4.77;;
1691;SDS011;843;52.054;8.552;2022-11-22T05:27:52;6.50;;;5.20;;
1691;SDS011;843;52.054;8.552;2022-11-22T05:30:19;6.43;;;4.77;;
1691;SDS011;843;52.054;8.552;2022-11-22T05:32:46;6.47;;;5.57;;
1691;SDS011;843;52.054;8.552;2022-11-22T05:35:13;7.70;;;4.80;;
1691;SDS011;843;52.054;8.552;2022-11-22T05:37:41;5.60;;;4.97;;
1691;SDS011;843;52.054;8.552;2022-11-22T05:40:09;5.43;;;4.80;;
1691;SDS011;843;52.054;8.552;2022-11-22T05:42:36;9.63;;;5.50;;
1691;SDS011;843;52.054;8.552;2022-11-22T05:45:05;5.83;;;4.13;;
1691;SDS011;843;52.054;8.552;2022-11-22T05:47:33;6.40;;;4.80;;
1691;SDS011;843;52.054;8.552;2022-11-22T05:50:00;7.93;;;4.87;;
1691;SDS011;843;52.054;8.552;2022-11-22T05:52:26;6.90;;;5.50;;
1691;SDS011;843;52.054;8.552;2022-11-22T05:54:53;6.83;;;4.93;;
1691;SDS011;843;52.054;8.552;2022-11-22T05:57:19;5.30;;;4.80;;
1691;SDS011;843;52.054;8.552;2022-11-22T05:59:46;6.37;;;5.20;;
1691;SDS011;843;52.054;8.552;2022-11-22T06:02:14;7.83;;;4.00;;
1691;SDS011;843;52.054;8.552;2022-11-22T06:04:41;7.60;;;4.10;;
1691;SDS011;843;52.054;8.552;2022-11-22T06:07:07;5.77;;;4.13;;
1691;SDS011;843;52.054;8.552;2022-11-22T06:09:34;6.63;;;4.50;;
1691;SDS011;843;52.054;8.552;2022-11-22T06:12:00;5.40;;;4.27;;
1691;SDS011;843;52.054;8.552;2022-11-22T06:14:27;5.37;;;3.93;;
1691;SDS011;843;52.054;8.552;2022-11-22T06:16:54;4.80;;;4.10;;
1691;SDS011;843;52.054;8.552;2022-11-22T06:19:22;5.63;;;4.10;;
1691;SDS011;843;52.054;8.552;2022-11-22T06:21:48;5.40;;;4.90;;
1691;SDS011;843;52.054;8.552;2022-11-22T06:24:15;4.50;;;4.10;;
1691;SDS011;843;52.054;8.552;2022-11-22T06:26:42;4.80;;;4.37;;
1691;SDS011;843;52.054;8.552;2022-11-22T06:29:09;13.10;;;6.73;;
1691;SDS011;843;52.054;8.552;2022-11-22T06:31:35;5.00;;;4.50;;
1691;SDS011;843;52.054;8.552;2022-11-22T06:34:02;8.50;;;4.83;;
1691;SDS011;843;52.054;8.552;2022-11-22T06:36:31;5.00;;;4.17;;
1691;SDS011;843;52.054;8.552;2022-11-22T06:38:58;4.73;;;4.20;;
1691;SDS011;843;52.054;8.552;2022-11-22T06:41:26;11.20;;;6.07;;
1691;SDS011;843;52.054;8.552;2022-11-22T06:43:56;11.30;;;6.73;;
1691;SDS011;843;52.054;8.552;2022-11-22T06:46:24;11.53;;;7.17;;
1691;SDS011;843;52.054;8.552;2022-11-22T06:48:51;9.90;;;7.40;;
1691;SDS011;843;52.054;8.552;2022-11-22T06:51:19;10.37;;;6.67;;
1691;SDS011;843;52.054;8.552;2022-11-22T06:53:48;12.23;;;7.80;;
1691;SDS011;843;52.054;8.552;2022-11-22T06:56:15;11.87;;;7.53;;
1691;SDS011;843;52.054;8.552;2022-11-22T06:58:43;12.27;;;6.83;;
1691;SDS011;843;52.054;8.552;2022-11-22T07:01:11;5.70;;;4.70;;
1691;SDS011;843;52.054;8.552;2022-11-22T07:03:39;7.30;;;4.63;;
1691;SDS011;843;52.054;8.552;2022-11-22T07:06:07;5.87;;;4.63;;
1691;SDS011;843;52.054;8.552;2022-11-22T07:08:35;7.37;;;5.83;;
1691;SDS011;843;52.054;8.552;2022-11-22T07:11:04;12.13;;;5.97;;
1691;SDS011;843;52.054;8.552;2022-11-22T07:13:31;7.43;;;5.50;;
1691;SDS011;843;52.054;8.552;2022-11-22T07:15:59;9.87;;;5.60;;
1691;SDS011;843;52.054;8.552;2022-11-22T07:18:27;13.10;;;6.77;;
1691;SDS011;843;52.054;8.552;2022-11-22T07:20:58;16.90;;;8.70;;
1691;SDS011;843;52.054;8.552;2022-11-22T07:23:25;13.50;;;8.53;;
1691;SDS011;843;52.054;8.552;2022-11-22T07:25:52;13.87;;;8.30;;
1691;SDS011;843;52.054;8.552;2022-11-22T07:28:20;8.30;;;7.07;;
1691;SDS011;843;52.054;8.552;2022-11-22T07:30:47;10.07;;;7.03;;
1691;SDS011;843;52.054;8.552;2022-11-22T07:33:14;9.20;;;6.30;;
1691;SDS011;843;52.054;8.552;2022-11-22T07:35:41;13.70;;;9.50;;
1691;SDS011;843;52.054;8.552;2022-11-22T07:38:07;15.10;;;10.97;;
1691;SDS011;843;52.054;8.552;2022-11-22T07:40:34;16.87;;;10.53;;
1691;SDS011;843;52.054;8.552;2022-11-22T07:43:02;12.27;;;8.90;;
1691;SDS011;843;52.054;8.552;2022-11-22T07:45:30;19.67;;;9.93;;
1691;SDS011;843;52.054;8.552;2022-11-22T07:47:57;20.83;;;13.17;;
1691;SDS011;843;52.054;8.552;2022-11-22T07:50:24;17.33;;;10.00;;
1691;SDS011;843;52.054;8.552;2022-11-22T07:52:53;23.70;;;12.07;;
1691;SDS011;843;52.054;8.552;2022-11-22T07:55:20;25.33;;;13.53;;
1691;SDS011;843;52.054;8.552;2022-11-22T07:57:47;17.20;;;10.50;;
1691;SDS011;843;52.054;8.552;2022-11-22T08:00:14;15.13;;;8.70;;
1691;SDS011;843;52.054;8.552;2022-11-22T08:02:42;11.13;;;7.57;;
1691;SDS011;843;52.054;8.552;2022-11-22T08:05:09;10.40;;;5.13;;
1691;SDS011;843;52.054;8.552;2022-11-22T08:07:36;8.73;;;4.33;;
1691;SDS011;843;52.054;8.552;2022-11-22T08:10:02;7.97;;;3.77;;
1691;SDS011;843;52.054;8.552;2022-11-22T08:12:29;5.97;;;3.43;;
1691;SDS011;843;52.054;8.552;2022-11-22T08:14:56;13.43;;;3.97;;
1691;SDS011;843;52.054;8.552;2022-11-22T08:17:23;10.03;;;3.47;;
1691;SDS011;843;52.054;8.552;2022-11-22T08:19:51;10.23;;;3.80;;
1691;SDS011;843;52.054;8.552;2022-11-22T08:22:18;5.23;;;3.00;;
1691;SDS011;843;52.054;8.552;2022-11-22T08:24:47;4.77;;;2.93;;
1691;SDS011;843;52.054;8.552;2022-11-22T08:27:14;13.73;;;3.90;;
1691;SDS011;843;52.054;8.552;2022-11-22T08:29:41;9.40;;;3.63;;
1691;SDS011;843;52.054;8.552;2022-11-22T08:32:07;7.40;;;3.63;;
1691;SDS011;843;52.054;8.552;2022-11-22T08:34:34;6.60;;;3.27;;
1691;SDS011;843;52.054;8.552;2022-11-22T08:37:02;7.43;;;3.33;;
1691;SDS011;843;52.054;8.552;2022-11-22T08:39:28;8.33;;;2.90;;
1691;SDS011;843;52.054;8.552;2022-11-22T08:41:55;6.77;;;2.10;;
1691;SDS011;843;52.054;8.552;2022-11-22T08:44:22;7.17;;;2.33;;
1691;SDS011;843;52.054;8.552;2022-11-22T08:46:49;7.97;;;2.60;;
1691;SDS011;843;52.054;8.552;2022-11-22T08:49:15;7.47;;;3.27;;
1691;SDS011;843;52.054;8.552;2022-11-22T08:51:42;5.07;;;1.70;;
1691;SDS011;843;52.054;8.552;2022-11-22T08:54:12;5.60;;;2.00;;
1691;SDS011;843;52.054;8.552;2022-11-22T08:56:40;6.20;;;2.70;;
1691;SDS011;843;52.054;8.552;2022-11-22T08:59:06;10.03;;;4.90;;
1691;SDS011;843;52.054;8.552;2022-11-22T09:01:33;11.57;;;6.10;;
1691;SDS011;843;52.054;8.552;2022-11-22T09:04:00;13.53;;;5.33;;
1691;SDS011;843;52.054;8.552;2022-11-22T09:06:26;5.87;;;3.20;;
1691;SDS011;843;52.054;8.552;2022-11-22T09:08:53;8.40;;;3.30;;
1691;SDS011;843;52.054;8.552;2022-11-22T09:11:21;8.30;;;3.03;;
1691;SDS011;843;52.054;8.552;2022-11-22T09:13:48;10.87;;;3.17;;
1691;SDS011;843;52.054;8.552;2022-11-22T09:16:15;5.67;;;2.53;;
1691;SDS011;843;52.054;8.552;2022-11-22T09:18:42;5.87;;;1.97;;
1691;SDS011;843;52.054;8.552;2022-11-22T09:21:10;8.10;;;2.90;;
1691;SDS011;843;52.054;8.552;2022-11-22T09:23:40;6.20;;;2.80;;
1691;SDS011;843;52.054;8.552;2022-11-22T09:26:10;7.17;;;1.83;;
1691;SDS011;843;52.054;8.552;2022-11-22T09:28:39;4.30;;;2.20;;
1691;SDS011;843;52.054;8.552;2022-11-22T09:31:06;4.97;;;2.27;;
1691;SDS011;843;52.054;8.552;2022-11-22T09:33:34;8.07;;;2.30;;
1691;SDS011;843;52.054;8.552;2022-11-22T09:36:02;5.60;;;2.37;;
1691;SDS011;843;52.054;8.552;2022-11-22T09:38:30;5.70;;;2.30;;
1691;SDS011;843;52.054;8.552;2022-11-22T09:40:57;7.47;;;2.33;;
1691;SDS011;843;52.054;8.552;2022-11-22T09:43:26;5.23;;;2.17;;
1691;SDS011;843;52.054;8.552;2022-11-22T09:46:03;5.97;;;2.23;;
1691;SDS011;843;52.054;8.552;2022-11-22T09:48:40;8.10;;;2.60;;
1691;SDS011;843;52.054;8.552;2022-11-22T09:51:14;7.87;;;2.77;;
1691;SDS011;843;52.054;8.552;2022-11-22T09:53:43;8.30;;;2.30;;
1691;SDS011;843;52.054;8.552;2022-11-22T09:56:14;10.30;;;2.07;;
1691;SDS011;843;52.054;8.552;2022-11-22T09:58:42;5.17;;;2.00;;
1691;SDS011;843;52.054;8.552;2022-11-22T10:01:13;12.20;;;2.10;;
1691;SDS011;843;52.054;8.552;2022-11-22T10:03:44;6.43;;;2.13;;
1691;SDS011;843;52.054;8.552;2022-11-22T10:06:13;7.60;;;2.40;;
1691;SDS011;843;52.054;8.552;2022-11-22T10:08:45;5.10;;;1.90;;
1691;SDS011;843;52.054;8.552;2022-11-22T10:11:18;10.50;;;2.00;;
1691;SDS011;843;52.054;8.552;2022-11-22T10:13:50;4.23;;;2.00;;
1691;SDS011;843;52.054;8.552;2022-11-22T10:16:18;8.90;;;2.37;;
1691;SDS011;843;52.054;8.552;2022-11-22T10:18:50;7.57;;;2.80;;
1691;SDS011;843;52.054;8.552;2022-11-22T10:21:19;9.43;;;2.23;;
1691;SDS011;843;52.054;8.552;2022-11-22T10:23:46;7.57;;;1.77;;
1691;SDS011;843;52.054;8.552;2022-11-22T10:26:18;8.87;;;2.07;;
1691;SDS011;843;52.054;8.552;2022-11-22T10:28:50;5.97;;;1.90;;
1691;SDS011;843;52.054;8.552;2022-11-22T10:31:28;7.70;;;2.00;;
1691;SDS011;843;52.054;8.552;2022-11-22T10:33:58;5.93;;;2.20;;
1691;SDS011;843;52.054;8.552;2022-11-22T10:36:31;10.30;;;2.37;;
1691;SDS011;843;52.054;8.552;2022-11-22T10:39:06;5.87;;;1.77;;
1691;SDS011;843;52.054;8.552;2022-11-22T10:41:40;6.40;;;2.17;;
1691;SDS011;843;52.054;8.552;2022-11-22T10:44:14;8.00;;;2.30;;
1691;SDS011;843;52.054;8.552;2022-11-22T10:46:49;6.17;;;2.40;;
1691;SDS011;843;52.054;8.552;2022-11-22T10:49:36;6.17;;;1.87;;
1691;SDS011;843;52.054;8.552;2022-11-22T10:52:09;6.43;;;2.30;;
1691;SDS011;843;52.054;8.552;2022-11-22T10:54:41;7.80;;;2.43;;
1691;SDS011;843;52.054;8.552;2022-11-22T10:57:13;8.03;;;1.90;;
1691;SDS011;843;52.054;8.552;2022-11-22T10:59:46;6.20;;;1.67;;
1691;SDS011;843;52.054;8.552;2022-11-22T11:02:28;6.27;;;2.00;;
1691;SDS011;843;52.054;8.552;2022-11-22T11:05:03;5.43;;;2.17;;
1691;SDS011;843;52.054;8.552;2022-11-22T11:07:32;8.50;;;2.23;;
1691;SDS011;843;52.054;8.552;2022-11-22T11:10:00;5.97;;;2.97;;
1691;SDS011;843;52.054;8.552;2022-11-22T11:12:31;6.23;;;3.30;;
1691;SDS011;843;52.054;8.552;2022-11-22T11:15:11;7.83;;;2.13;;
1691;SDS011;843;52.054;8.552;2022-11-22T11:17:42;5.33;;;1.57;;
1691;SDS011;843;52.054;8.552;2022-11-22T11:20:12;5.30;;;1.90;;
1691;SDS011;843;52.054;8.552;2022-11-22T11:22:42;5.20;;;1.47;;
1691;SDS011;843;52.054;8.552;2022-11-22T11:27:55;4.73;;;1.40;;
1691;SDS011;843;52.054;8.552;2022-11-22T11:30:24;9.30;;;2.63;;
1691;SDS011;843;52.054;8.552;2022-11-22T11:32:52;8.17;;;1.80;;
1691;SDS011;843;52.054;8.552;2022-11-22T11:35:20;7.00;;;2.00;;
1691;SDS011;843;52.054;8.552;2022-11-22T11:37:49;6.80;;;1.73;;
1691;SDS011;843;52.054;8.552;2022-11-22T11:40:26;4.00;;;1.53;;
1691;SDS011;843;52.054;8.552;2022-11-22T11:43:13;5.80;;;1.50;;
1691;SDS011;843;52.054;8.552;2022-11-22T11:45:40;3.33;;;1.50;;
1691;SDS011;843;52.054;8.552;2022-11-22T11:48:21;7.07;;;2.33;;
1691;SDS011;843;52.054;8.552;2022-11-22T11:50:51;3.73;;;1.50;;
1691;SDS011;843;52.054;8.552;2022-11-22T11:53:21;6.30;;;1.53;;
1691;SDS011;843;52.054;8.552;2022-11-22T11:55:50;6.80;;;1.30;;
1691;SDS011;843;52.054;8.552;2022-11-22T11:58:18;3.67;;;1.63;;
1691;SDS011;843;52.054;8.552;2022-11-22T12:00:46;4.50;;;1.73;;
1691;SDS011;843;52.054;8.552;2022-11-22T12:03:14;3.90;;;1.50;;
1691;SDS011;843;52.054;8.552;2022-11-22T12:05:43;5.70;;;1.33;;
1691;SDS011;843;52.054;8.552;2022-11-22T12:08:25;6.30;;;1.63;;
1691;SDS011;843;52.054;8.552;2022-11-22T12:10:54;4.27;;;1.30;;
1691;SDS011;843;52.054;8.552;2022-11-22T12:13:24;7.30;;;1.90;;
1691;SDS011;843;52.054;8.552;2022-11-22T12:15:57;4.80;;;1.53;;
1691;SDS011;843;52.054;8.552;2022-11-22T12:18:27;5.37;;;1.37;;
1691;SDS011;843;52.054;8.552;2022-11-22T12:21:02;4.80;;;1.17;;
1691;SDS011;843;52.054;8.552;2022-11-22T12:23:39;3.57;;;1.03;;
1691;SDS011;843;52.054;8.552;2022-11-22T12:26:11;6.80;;;1.63;;
1691;SDS011;843;52.054;8.552;2022-11-22T12:28:38;6.23;;;1.20;;
1691;SDS011;843;52.054;8.552;2022-11-22T12:31:06;5.00;;;1.30;;
1691;SDS011;843;52.054;8.552;2022-11-22T12:33:39;7.87;;;1.60;;
1691;SDS011;843;52.054;8.552;2022-11-22T12:36:11;3.60;;;1.27;;
1691;SDS011;843;52.054;8.552;2022-11-22T12:38:42;4.40;;;1.30;;
1691;SDS011;843;52.054;8.552;2022-11-22T12:41:11;5.77;;;1.27;;
1691;SDS011;843;52.054;8.552;2022-11-22T12:43:42;3.60;;;1.60;;
1691;SDS011;843;52.054;8.552;2022-11-22T12:46:11;2.80;;;1.20;;
1691;SDS011;843;52.054;8.552;2022-11-22T12:48:42;6.17;;;1.37;;
1691;SDS011;843;52.054;8.552;2022-11-22T12:51:14;4.93;;;1.30;;
1691;SDS011;843;52.054;8.552;2022-11-22T12:53:44;7.60;;;1.90;;
1691;SDS011;843;52.054;8.552;2022-11-22T12:56:15;2.90;;;1.20;;
1691;SDS011;843;52.054;8.552;2022-11-22T12:58:48;4.03;;;1.43;;
1691;SDS011;843;52.054;8.552;2022-11-22T13:01:19;3.57;;;1.20;;
1691;SDS011;843;52.054;8.552;2022-11-22T13:03:52;4.40;;;1.50;;
1691;SDS011;843;52.054;8.552;2022-11-22T13:06:23;5.10;;;1.43;;
1691;SDS011;843;52.054;8.552;2022-11-22T13:08:54;3.20;;;1.47;;
1691;SDS011;843;52.054;8.552;2022-11-22T13:11:24;3.70;;;1.50;;
1691;SDS011;843;52.054;8.552;2022-11-22T13:13:55;5.10;;;1.27;;
1691;SDS011;843;52.054;8.552;2022-11-22T13:16:25;4.70;;;1.10;;
1691;SDS011;843;52.054;8.552;2022-11-22T13:18:54;2.17;;;1.17;;
1691;SDS011;843;52.054;8.552;2022-11-22T13:21:24;4.70;;;1.40;;
1691;SDS011;843;52.054;8.552;2022-11-22T13:24:07;5.10;;;1.40;;
1691;SDS011;843;52.054;8.552;2022-11-22T13:26:52;5.83;;;1.97;;
1691;SDS011;843;52.054;8.552;2022-11-22T13:29:24;3.67;;;0.87;;
1691;SDS011;843;52.054;8.552;2022-11-22T13:31:59;5.33;;;1.00;;
1691;SDS011;843;52.054;8.552;2022-11-22T13:34:33;3.37;;;1.20;;
1691;SDS011;843;52.054;8.552;2022-11-22T13:37:08;3.87;;;2.13;;
1691;SDS011;843;52.054;8.552;2022-11-22T13:39:37;3.13;;;1.47;;
1691;SDS011;843;52.054;8.552;2022-11-22T13:42:10;5.10;;;1.70;;
1691;SDS011;843;52.054;8.552;2022-11-22T13:44:48;2.93;;;1.37;;
1691;SDS011;843;52.054;8.552;2022-11-22T13:47:36;3.17;;;1.30;;
1691;SDS011;843;52.054;8.552;2022-11-22T13:53:30;4.13;;;1.13;;
1691;SDS011;843;52.054;8.552;2022-11-22T13:56:08;2.77;;;1.20;;
1691;SDS011;843;52.054;8.552;2022-11-22T13:59:14;3.50;;;1.30;;
1691;SDS011;843;52.054;8.552;2022-11-22T14:07:24;7.13;;;1.60;;
1691;SDS011;843;52.054;8.552;2022-11-22T14:09:57;2.63;;;1.40;;
1691;SDS011;843;52.054;8.552;2022-11-22T14:12:31;3.70;;;1.83;;
1691;SDS011;843;52.054;8.552;2022-11-22T14:15:19;5.57;;;1.43;;
1691;SDS011;843;52.054;8.552;2022-11-22T14:17:53;4.77;;;1.73;;
1691;SDS011;843;52.054;8.552;2022-11-22T14:20:30;3.23;;;1.20;;
1691;SDS011;843;52.054;8.552;2022-11-22T14:23:04;9.20;;;1.67;;
1691;SDS011;843;52.054;8.552;2022-11-22T14:25:46;5.20;;;1.87;;
1691;SDS011;843;52.054;8.552;2022-11-22T14:28:25;6.60;;;1.60;;
1691;SDS011;843;52.054;8.552;2022-11-22T14:31:11;3.33;;;1.37;;
1691;SDS011;843;52.054;8.552;2022-11-22T14:36:38;4.47;;;1.17;;
1691;SDS011;843;52.054;8.552;2022-11-22T14:45:14;2.33;;;1.00;;
1691;SDS011;843;52.054;8.552;2022-11-22T14:47:46;2.20;;;1.00;;
1691;SDS011;843;52.054;8.552;2022-11-22T14:50:21;2.40;;;1.00;;
1691;SDS011;843;52.054;8.552;2022-11-22T14:52:50;4.60;;;1.30;;
1691;SDS011;843;52.054;8.552;2022-11-22T14:55:25;2.73;;;1.30;;
1691;SDS011;843;52.054;8.552;2022-11-22T14:57:55;6.73;;;2.20;;
1691;SDS011;843;52.054;8.552;2022-11-22T15:00:26;2.90;;;1.30;;
1691;SDS011;843;52.054;8.552;2022-11-22T15:03:10;4.23;;;1.83;;
1691;SDS011;843;52.054;8.552;2022-11-22T15:06:12;1.67;;;1.17;;
1691;SDS011;843;52.054;8.552;2022-11-22T15:08:49;6.83;;;1.93;;
1691;SDS011;843;52.054;8.552;2022-11-22T15:17:28;5.50;;;2.33;;
1691;SDS011;843;52.054;8.552;2022-11-22T15:19:55;8.60;;;2.73;;
1691;SDS011;843;52.054;8.552;2022-11-22T15:22:25;7.03;;;3.87;;
1691;SDS011;843;52.054;8.552;2022-11-22T15:24:53;6.40;;;3.57;;
1691;SDS011;843;52.054;8.552;2022-11-22T15:27:24;6.30;;;3.13;;
1691;SDS011;843;52.054;8.552;2022-11-22T15:30:06;4.73;;;2.20;;
1691;SDS011;843;52.054;8.552;2022-11-22T15:32:36;3.40;;;1.70;;
1691;SDS011;843;52.054;8.552;2022-11-22T15:35:10;4.93;;;1.70;;
1691;SDS011;843;52.054;8.552;2022-11-22T15:37:39;4.63;;;1.73;;
1691;SDS011;843;52.054;8.552;2022-11-22T15:40:13;6.80;;;1.70;;
1691;SDS011;843;52.054;8.552;2022-11-22T15:42:48;4.80;;;1.63;;
1691;SDS011;843;52.054;8.552;2022-11-22T15:45:16;9.87;;;1.90;;
1691;SDS011;843;52.054;8.552;2022-11-22T15:47:46;7.83;;;1.90;;
1691;SDS011;843;52.054;8.552;2022-11-22T15:50:15;8.00;;;2.27;;
1691;SDS011;843;52.054;8.552;2022-11-22T15:52:48;5.50;;;2.47;;
1691;SDS011;843;52.054;8.552;2022-11-22T15:55:16;6.00;;;1.83;;
1691;SDS011;843;52.054;8.552;2022-11-22T15:57:44;7.40;;;2.50;;
1691;SDS011;843;52.054;8.552;2022-11-22T16:00:18;7.37;;;2.40;;
1691;SDS011;843;52.054;8.552;2022-11-22T16:02:48;4.33;;;2.30;;
1691;SDS011;843;52.054;8.552;2022-11-22T16:05:21;4.87;;;1.70;;